This is the latest recevied weather packets stored in our database for station/object KA3RQR. If no packets are shown the sender has not sent any weather packets the latest 10 day(s).
| Time | Temp. | Humidity | Pressure | Rain* | Wind** | Luminosity | Snow |
|---|---|---|---|---|---|---|---|
| 1777585167 | 18.89° C | 44% | 1009.7 hPa | 0 mm | - | 295 W/m² | - |
| 1777584863 | 18.89° C | 44% | 1009.4 hPa | 0 mm | - | 308 W/m² | - |
| 1777584561 | 17.78° C | 44% | 1009.3 hPa | 0 mm | - | 344 W/m² | - |
| 1777584257 | 18.89° C | 43% | 1009.5 hPa | 0 mm | - | 140 W/m² | - |
| 1777583951 | 18.33° C | 43% | 1009.3 hPa | 0 mm | - | 113 W/m² | - |
| 1777583647 | 18.89° C | 41% | 1009.2 hPa | 0 mm | - | 140 W/m² | - |
| 1777583346 | 18.33° C | 44% | 1009.1 hPa | 0 mm | - | 430 W/m² | - |
| 1777583041 | 17.78° C | 43% | 1009.1 hPa | 0 mm | - | 171 W/m² | - |
| 1777582738 | 17.78° C | 42% | 1009.2 hPa | 0 mm | - | 108 W/m² | - |
| 1777582433 | 17.78° C | 43% | 1008.8 hPa | 0 mm | - | 172 W/m² | - |
| 1777582133 | 17.78° C | 41% | 1008.9 hPa | 0 mm | - | 92 W/m² | - |
| 1777581826 | 17.78° C | 42% | 1009 hPa | 0 mm | - | 76 W/m² | - |
| 1777581525 | 18.89° C | 41% | 1008.9 hPa | 0 mm | - | 76 W/m² | - |
| 1777581221 | 17.78° C | 41% | 1008.9 hPa | 0 mm | - | 556 W/m² | - |
| 1777580921 | 17.78° C | 42% | 1008.8 hPa | 0 mm | - | 106 W/m² | - |
| 1777580615 | 18.33° C | 41% | 1008.8 hPa | 0 mm | - | 133 W/m² | - |
| 1777580312 | 17.78° C | 42% | 1008.8 hPa | 0 mm | - | 99 W/m² | - |
| 1777580008 | 18.33° C | 41% | 1008.6 hPa | 0 mm | - | 124 W/m² | - |
| 1777579704 | 18.89° C | 40% | 1008.6 hPa | 0 mm | - | 101 W/m² | - |
| 1777579403 | 19.44° C | 40% | 1008.6 hPa | 0 mm | - | 575 W/m² | - |
| 1777579098 | 18.33° C | 40% | 1008.6 hPa | 0 mm | - | 105 W/m² | - |
| 1777578792 | 19.44° C | 39% | 1008.9 hPa | 0 mm | - | 138 W/m² | - |
| 1777578488 | 18.89° C | 45% | 1008.6 hPa | 0 mm | - | 645 W/m² | - |
| 1777578183 | 18.89° C | 40% | 1008.5 hPa | 0 mm | - | 100 W/m² | - |
| 1777577879 | 18.33° C | 40% | 1008.6 hPa | 0 mm | - | 103 W/m² | - |
* Rain latest hour (hover to see other rain measurements)
** Current wind speed in m/s (hover to see current wind gust speed)